Jerry City, Ohio
Current Conditions -  °F | °C
As of 7:53 PM on Monday 22 Dec 2014 (Local Time) from KFDY Reporting Station
Overcast Overcast  
Wind Chill: 34°   Ceiling: 7500
Heat Index: 40°   Visibility: 8mi
Dew Point: 33°   Wind: 9mph
Humidity: 77%   Direction: 90°E
Pressure: 29.84"   Gusts: NA
Location:  41.25°N, 83.6°W
Report Text: KFDY 230053Z AUTO 09008KT 8SM OVC075 04/01 A2984 RMK AO2 SLP108 T00440006
Loading
Personal Weather Stations






























Interactive Weather Map New forecast layout! Learn more

10-Day Weather Forecast

Advertisements
Track Severe Weather on mobile